Terminal Aerodrome Forecast
Issued by NWS

Home | Current Version | Previous Version | Text Only | Print | Product List | Glossary On
Versions: 1 2 3 4 5 6 7 8 9 10 11 12 13 14 15 16 17 18 19
000
FTAK31 PANC 241141
TAFADQ
TAF
PADQ 241141Z 2412/2512 26020G35KT P6SM VCSH FEW030 BKN045
      TEMPO 2412/2415 25035G45KT
     FM241500 29024G44KT P6SM FEW030=

USA.gov is the U.S. government's official web portal to all federal, state and local government web resources and services.